sensor_id;sensor_type;location;lat;lon;timestamp;pressure;altitude;pressure_sealevel;temperature
67829;BMP280;54626;45.436;10.942;2023-03-07T00:00:53;99501.16;;;7.23
67829;BMP280;54626;45.436;10.942;2023-03-07T00:03:20;99495.44;;;7.21
67829;BMP280;54626;45.436;10.942;2023-03-07T00:05:47;99506.22;;;7.19
67829;BMP280;54626;45.436;10.942;2023-03-07T00:08:13;99504.41;;;7.21
67829;BMP280;54626;45.436;10.942;2023-03-07T00:10:40;99504.97;;;7.20
67829;BMP280;54626;45.436;10.942;2023-03-07T00:13:06;99495.84;;;7.25
67829;BMP280;54626;45.436;10.942;2023-03-07T00:15:36;99502.03;;;7.18
67829;BMP280;54626;45.436;10.942;2023-03-07T00:18:03;99501.19;;;7.10
67829;BMP280;54626;45.436;10.942;2023-03-07T00:20:29;99500.19;;;7.20
67829;BMP280;54626;45.436;10.942;2023-03-07T00:22:56;99501.47;;;7.19
67829;BMP280;54626;45.436;10.942;2023-03-07T00:25:22;99509.66;;;7.12
67829;BMP280;54626;45.436;10.942;2023-03-07T00:27:49;99506.31;;;7.06
67829;BMP280;54626;45.436;10.942;2023-03-07T00:30:15;99501.25;;;6.97
67829;BMP280;54626;45.436;10.942;2023-03-07T00:32:42;99506.34;;;6.93
67829;BMP280;54626;45.436;10.942;2023-03-07T00:35:09;99498.75;;;6.86
67829;BMP280;54626;45.436;10.942;2023-03-07T00:37:35;99510.56;;;6.94
67829;BMP280;54626;45.436;10.942;2023-03-07T00:40:02;99506.47;;;7.08
67829;BMP280;54626;45.436;10.942;2023-03-07T00:42:29;99505.84;;;7.15
67829;BMP280;54626;45.436;10.942;2023-03-07T00:44:55;99500.56;;;7.17
67829;BMP280;54626;45.436;10.942;2023-03-07T00:47:21;99494.91;;;7.02
67829;BMP280;54626;45.436;10.942;2023-03-07T00:49:48;99490.84;;;6.82
67829;BMP280;54626;45.436;10.942;2023-03-07T00:52:15;99482.50;;;6.75
67829;BMP280;54626;45.436;10.942;2023-03-07T00:54:42;99487.91;;;6.67
67829;BMP280;54626;45.436;10.942;2023-03-07T00:57:08;99484.66;;;6.69
67829;BMP280;54626;45.436;10.942;2023-03-07T00:59:35;99489.38;;;6.68
67829;BMP280;54626;45.436;10.942;2023-03-07T01:02:01;99482.13;;;6.58
67829;BMP280;54626;45.436;10.942;2023-03-07T01:04:27;99478.56;;;6.50
67829;BMP280;54626;45.436;10.942;2023-03-07T01:06:54;99478.47;;;6.43
67829;BMP280;54626;45.436;10.942;2023-03-07T01:09:20;99477.72;;;6.42
67829;BMP280;54626;45.436;10.942;2023-03-07T01:11:48;99477.09;;;6.36
67829;BMP280;54626;45.436;10.942;2023-03-07T01:14:15;99472.88;;;6.22
67829;BMP280;54626;45.436;10.942;2023-03-07T01:16:41;99473.00;;;6.17
67829;BMP280;54626;45.436;10.942;2023-03-07T01:19:09;99463.19;;;6.08
67829;BMP280;54626;45.436;10.942;2023-03-07T01:21:39;99465.91;;;6.08
67829;BMP280;54626;45.436;10.942;2023-03-07T01:24:09;99464.66;;;5.96
67829;BMP280;54626;45.436;10.942;2023-03-07T01:26:35;99460.22;;;5.93
67829;BMP280;54626;45.436;10.942;2023-03-07T01:29:04;99464.66;;;5.83
67829;BMP280;54626;45.436;10.942;2023-03-07T01:31:31;99467.81;;;5.87
67829;BMP280;54626;45.436;10.942;2023-03-07T01:33:58;99456.94;;;5.95
67829;BMP280;54626;45.436;10.942;2023-03-07T01:36:29;99464.03;;;6.03
67829;BMP280;54626;45.436;10.942;2023-03-07T01:38:58;99471.00;;;6.04
67829;BMP280;54626;45.436;10.942;2023-03-07T01:41:28;99460.66;;;5.97
67829;BMP280;54626;45.436;10.942;2023-03-07T01:43:59;99457.38;;;5.99
67829;BMP280;54626;45.436;10.942;2023-03-07T01:46:54;99461.06;;;5.88
67829;BMP280;54626;45.436;10.942;2023-03-07T01:49:25;99457.16;;;5.84
67829;BMP280;54626;45.436;10.942;2023-03-07T01:52:10;99458.50;;;5.77
67829;BMP280;54626;45.436;10.942;2023-03-07T01:54:41;99451.00;;;5.65
67829;BMP280;54626;45.436;10.942;2023-03-07T01:57:17;99463.22;;;5.64
67829;BMP280;54626;45.436;10.942;2023-03-07T01:59:45;99465.25;;;5.63
67829;BMP280;54626;45.436;10.942;2023-03-07T02:02:14;99466.81;;;5.59
67829;BMP280;54626;45.436;10.942;2023-03-07T02:04:53;99465.34;;;5.58
67829;BMP280;54626;45.436;10.942;2023-03-07T02:07:24;99466.31;;;5.60
67829;BMP280;54626;45.436;10.942;2023-03-07T02:09:52;99468.09;;;5.58
67829;BMP280;54626;45.436;10.942;2023-03-07T02:12:19;99456.41;;;5.57
67829;BMP280;54626;45.436;10.942;2023-03-07T02:14:48;99451.13;;;5.59
67829;BMP280;54626;45.436;10.942;2023-03-07T02:17:16;99451.84;;;5.60
67829;BMP280;54626;45.436;10.942;2023-03-07T02:19:56;99441.88;;;5.62
67829;BMP280;54626;45.436;10.942;2023-03-07T02:22:25;99442.69;;;5.57
67829;BMP280;54626;45.436;10.942;2023-03-07T02:25:12;99442.47;;;5.55
67829;BMP280;54626;45.436;10.942;2023-03-07T02:27:44;99441.00;;;5.54
67829;BMP280;54626;45.436;10.942;2023-03-07T02:30:12;99428.34;;;5.51
67829;BMP280;54626;45.436;10.942;2023-03-07T02:32:39;99439.06;;;5.49
67829;BMP280;54626;45.436;10.942;2023-03-07T02:35:21;99431.56;;;5.50
67829;BMP280;54626;45.436;10.942;2023-03-07T02:37:51;99429.59;;;5.50
67829;BMP280;54626;45.436;10.942;2023-03-07T02:40:21;99438.31;;;5.49
67829;BMP280;54626;45.436;10.942;2023-03-07T02:42:50;99427.91;;;5.47
67829;BMP280;54626;45.436;10.942;2023-03-07T02:45:18;99431.94;;;5.47
67829;BMP280;54626;45.436;10.942;2023-03-07T02:47:44;99435.50;;;5.42
67829;BMP280;54626;45.436;10.942;2023-03-07T02:50:13;99440.44;;;5.43
67829;BMP280;54626;45.436;10.942;2023-03-07T02:52:43;99436.44;;;5.44
67829;BMP280;54626;45.436;10.942;2023-03-07T02:55:10;99438.97;;;5.42
67829;BMP280;54626;45.436;10.942;2023-03-07T02:57:37;99434.00;;;5.41
67829;BMP280;54626;45.436;10.942;2023-03-07T03:00:04;99434.84;;;5.48
67829;BMP280;54626;45.436;10.942;2023-03-07T03:02:33;99434.66;;;5.47
67829;BMP280;54626;45.436;10.942;2023-03-07T03:05:00;99429.47;;;5.43
67829;BMP280;54626;45.436;10.942;2023-03-07T03:07:26;99429.34;;;5.36
67829;BMP280;54626;45.436;10.942;2023-03-07T03:09:53;99433.34;;;5.35
67829;BMP280;54626;45.436;10.942;2023-03-07T03:12:19;99439.06;;;5.37
67829;BMP280;54626;45.436;10.942;2023-03-07T03:14:46;99433.78;;;5.39
67829;BMP280;54626;45.436;10.942;2023-03-07T03:17:12;99435.06;;;5.38
67829;BMP280;54626;45.436;10.942;2023-03-07T03:19:39;99436.13;;;5.47
67829;BMP280;54626;45.436;10.942;2023-03-07T03:22:05;99433.59;;;5.49
67829;BMP280;54626;45.436;10.942;2023-03-07T03:24:33;99435.19;;;5.58
67829;BMP280;54626;45.436;10.942;2023-03-07T03:26:59;99442.16;;;5.59
67829;BMP280;54626;45.436;10.942;2023-03-07T03:29:26;99442.91;;;5.59
67829;BMP280;54626;45.436;10.942;2023-03-07T03:31:52;99447.63;;;5.46
67829;BMP280;54626;45.436;10.942;2023-03-07T03:34:19;99450.34;;;5.46
67829;BMP280;54626;45.436;10.942;2023-03-07T03:36:45;99456.19;;;5.55
67829;BMP280;54626;45.436;10.942;2023-03-07T03:39:12;99457.03;;;5.63
67829;BMP280;54626;45.436;10.942;2023-03-07T03:41:40;99460.19;;;5.67
67829;BMP280;54626;45.436;10.942;2023-03-07T03:44:06;99457.97;;;5.79
67829;BMP280;54626;45.436;10.942;2023-03-07T03:46:35;99451.59;;;5.89
67829;BMP280;54626;45.436;10.942;2023-03-07T03:49:02;99445.13;;;6.00
67829;BMP280;54626;45.436;10.942;2023-03-07T03:51:29;99451.81;;;6.04
67829;BMP280;54626;45.436;10.942;2023-03-07T03:53:56;99451.38;;;6.00
67829;BMP280;54626;45.436;10.942;2023-03-07T03:56:25;99451.38;;;6.00
67829;BMP280;54626;45.436;10.942;2023-03-07T03:58:54;99445.75;;;5.93
67829;BMP280;54626;45.436;10.942;2023-03-07T04:01:24;99451.38;;;5.87
67829;BMP280;54626;45.436;10.942;2023-03-07T04:03:53;99452.72;;;5.81
67829;BMP280;54626;45.436;10.942;2023-03-07T04:06:22;99455.78;;;5.77
67829;BMP280;54626;45.436;10.942;2023-03-07T04:08:50;99455.59;;;5.75
67829;BMP280;54626;45.436;10.942;2023-03-07T04:11:18;99451.97;;;5.80
67829;BMP280;54626;45.436;10.942;2023-03-07T04:13:44;99460.63;;;5.71
67829;BMP280;54626;45.436;10.942;2023-03-07T04:16:11;99453.25;;;5.66
67829;BMP280;54626;45.436;10.942;2023-03-07T04:18:37;99456.19;;;5.55
67829;BMP280;54626;45.436;10.942;2023-03-07T04:21:06;99459.00;;;5.50
67829;BMP280;54626;45.436;10.942;2023-03-07T04:23:33;99452.78;;;5.49
67829;BMP280;54626;45.436;10.942;2023-03-07T04:26:01;99463.13;;;5.56
67829;BMP280;54626;45.436;10.942;2023-03-07T04:28:30;99449.00;;;5.65
67829;BMP280;54626;45.436;10.942;2023-03-07T04:31:21;99455.16;;;5.71
67829;BMP280;54626;45.436;10.942;2023-03-07T04:33:49;99446.16;;;5.71
67829;BMP280;54626;45.436;10.942;2023-03-07T04:36:16;99453.97;;;5.67
67829;BMP280;54626;45.436;10.942;2023-03-07T04:38:43;99443.75;;;5.67
67829;BMP280;54626;45.436;10.942;2023-03-07T04:41:15;99447.88;;;5.74
67829;BMP280;54626;45.436;10.942;2023-03-07T04:43:42;99445.66;;;5.72
67829;BMP280;54626;45.436;10.942;2023-03-07T04:46:12;99450.50;;;5.79
67829;BMP280;54626;45.436;10.942;2023-03-07T04:48:39;99446.28;;;5.78
67829;BMP280;54626;45.436;10.942;2023-03-07T04:51:06;99448.63;;;5.74
67829;BMP280;54626;45.436;10.942;2023-03-07T04:53:32;99450.19;;;5.70
67829;BMP280;54626;45.436;10.942;2023-03-07T04:56:02;99451.00;;;5.65
67829;BMP280;54626;45.436;10.942;2023-03-07T04:58:30;99433.72;;;5.57
67829;BMP280;54626;45.436;10.942;2023-03-07T05:00:58;99445.00;;;5.53
67829;BMP280;54626;45.436;10.942;2023-03-07T05:03:26;99441.91;;;5.44
67829;BMP280;54626;45.436;10.942;2023-03-07T05:05:52;99438.63;;;5.33
67829;BMP280;54626;45.436;10.942;2023-03-07T05:08:19;99443.25;;;5.25
67829;BMP280;54626;45.436;10.942;2023-03-07T05:10:46;99434.13;;;5.17
67829;BMP280;54626;45.436;10.942;2023-03-07T05:13:13;99439.94;;;5.13
67829;BMP280;54626;45.436;10.942;2023-03-07T05:15:39;99443.66;;;5.16
67829;BMP280;54626;45.436;10.942;2023-03-07T05:18:06;99446.22;;;5.08
67829;BMP280;54626;45.436;10.942;2023-03-07T05:20:32;99444.56;;;5.00
67829;BMP280;54626;45.436;10.942;2023-03-07T05:22:59;99436.69;;;4.96
67829;BMP280;54626;45.436;10.942;2023-03-07T05:25:26;99447.94;;;4.93
67829;BMP280;54626;45.436;10.942;2023-03-07T05:27:53;99452.97;;;4.89
67829;BMP280;54626;45.436;10.942;2023-03-07T05:30:21;99439.88;;;4.82
67829;BMP280;54626;45.436;10.942;2023-03-07T05:32:48;99442.50;;;4.74
67829;BMP280;54626;45.436;10.942;2023-03-07T05:35:14;99440.25;;;4.73
67829;BMP280;54626;45.436;10.942;2023-03-07T05:37:41;99437.25;;;4.76
67829;BMP280;54626;45.436;10.942;2023-03-07T05:40:08;99429.13;;;4.84
67829;BMP280;54626;45.436;10.942;2023-03-07T05:42:36;99439.94;;;4.95
67829;BMP280;54626;45.436;10.942;2023-03-07T05:45:02;99451.75;;;5.03
67829;BMP280;54626;45.436;10.942;2023-03-07T05:47:29;99453.25;;;5.04
67829;BMP280;54626;45.436;10.942;2023-03-07T05:49:55;99450.72;;;5.06
67829;BMP280;54626;45.436;10.942;2023-03-07T05:52:22;99451.19;;;5.10
67829;BMP280;54626;45.436;10.942;2023-03-07T05:54:49;99457.84;;;5.14
67829;BMP280;54626;45.436;10.942;2023-03-07T05:57:16;99457.97;;;5.22
67829;BMP280;54626;45.436;10.942;2023-03-07T05:59:43;99458.41;;;5.26
67829;BMP280;54626;45.436;10.942;2023-03-07T06:02:10;99458.69;;;5.22
67829;BMP280;54626;45.436;10.942;2023-03-07T06:04:37;99459.31;;;5.15
67829;BMP280;54626;45.436;10.942;2023-03-07T06:07:03;99453.00;;;5.20
67829;BMP280;54626;45.436;10.942;2023-03-07T06:09:30;99452.19;;;5.25
67829;BMP280;54626;45.436;10.942;2023-03-07T06:11:56;99453.38;;;5.30
67829;BMP280;54626;45.436;10.942;2023-03-07T06:14:23;99456.34;;;5.32
67829;BMP280;54626;45.436;10.942;2023-03-07T06:16:49;99460.19;;;5.23
67829;BMP280;54626;45.436;10.942;2023-03-07T06:19:16;99460.81;;;5.16
67829;BMP280;54626;45.436;10.942;2023-03-07T06:21:43;99471.53;;;5.14
67829;BMP280;54626;45.436;10.942;2023-03-07T06:24:09;99470.69;;;5.19
67829;BMP280;54626;45.436;10.942;2023-03-07T06:26:35;99467.69;;;5.23
67829;BMP280;54626;45.436;10.942;2023-03-07T06:29:02;99474.66;;;5.37
67829;BMP280;54626;45.436;10.942;2023-03-07T06:31:28;99478.16;;;5.50
67829;BMP280;54626;45.436;10.942;2023-03-07T06:33:55;99479.16;;;5.65
67829;BMP280;54626;45.436;10.942;2023-03-07T06:36:23;99478.78;;;5.74
67829;BMP280;54626;45.436;10.942;2023-03-07T06:38:49;99489.13;;;5.94
67829;BMP280;54626;45.436;10.942;2023-03-07T06:41:16;99478.38;;;6.09
67829;BMP280;54626;45.436;10.942;2023-03-07T06:43:42;99477.63;;;6.09
67829;BMP280;54626;45.436;10.942;2023-03-07T06:46:09;99483.97;;;6.17
67829;BMP280;54626;45.436;10.942;2023-03-07T06:48:36;99491.69;;;6.31
67829;BMP280;54626;45.436;10.942;2023-03-07T06:51:09;99496.59;;;6.33
67829;BMP280;54626;45.436;10.942;2023-03-07T06:53:35;99492.59;;;6.08
67829;BMP280;54626;45.436;10.942;2023-03-07T06:56:02;99489.78;;;6.13
67829;BMP280;54626;45.436;10.942;2023-03-07T06:58:29;99496.19;;;6.29
67829;BMP280;54626;45.436;10.942;2023-03-07T07:00:55;99499.03;;;6.49
67829;BMP280;54626;45.436;10.942;2023-03-07T07:03:22;99513.59;;;6.70
67829;BMP280;54626;45.436;10.942;2023-03-07T07:05:48;99505.81;;;6.94
67829;BMP280;54626;45.436;10.942;2023-03-07T07:08:15;99500.56;;;7.17
67829;BMP280;54626;45.436;10.942;2023-03-07T07:10:41;99506.84;;;7.45
67829;BMP280;54626;45.436;10.942;2023-03-07T07:13:08;99505.34;;;7.85
67829;BMP280;54626;45.436;10.942;2023-03-07T07:15:34;99511.28;;;8.24
67829;BMP280;54626;45.436;10.942;2023-03-07T07:18:01;99501.09;;;8.47
67829;BMP280;54626;45.436;10.942;2023-03-07T07:20:27;99500.75;;;8.50
67829;BMP280;54626;45.436;10.942;2023-03-07T07:22:54;99513.06;;;8.57
67829;BMP280;54626;45.436;10.942;2023-03-07T07:25:20;99512.53;;;8.66
67829;BMP280;54626;45.436;10.942;2023-03-07T07:27:47;99513.69;;;8.70
67829;BMP280;54626;45.436;10.942;2023-03-07T07:30:13;99510.94;;;8.78
67829;BMP280;54626;45.436;10.942;2023-03-07T07:32:40;99509.66;;;8.79
67829;BMP280;54626;45.436;10.942;2023-03-07T07:35:07;99508.19;;;8.78
67829;BMP280;54626;45.436;10.942;2023-03-07T07:37:33;99506.03;;;8.91
67829;BMP280;54626;45.436;10.942;2023-03-07T07:39:59;99505.72;;;9.02
67829;BMP280;54626;45.436;10.942;2023-03-07T07:42:26;99513.97;;;9.02
67829;BMP280;54626;45.436;10.942;2023-03-07T07:44:52;99517.09;;;9.13
67829;BMP280;54626;45.436;10.942;2023-03-07T07:47:19;99514.72;;;9.47
67829;BMP280;54626;45.436;10.942;2023-03-07T07:49:45;99521.19;;;9.65
67829;BMP280;54626;45.436;10.942;2023-03-07T07:52:12;99520.06;;;9.75
67829;BMP280;54626;45.436;10.942;2023-03-07T07:54:38;99522.63;;;9.73
67829;BMP280;54626;45.436;10.942;2023-03-07T07:57:04;99519.28;;;10.04
67829;BMP280;54626;45.436;10.942;2023-03-07T07:59:31;99519.25;;;10.27
67829;BMP280;54626;45.436;10.942;2023-03-07T08:02:00;99521.09;;;10.64
67829;BMP280;54626;45.436;10.942;2023-03-07T08:04:27;99521.81;;;11.03
67829;BMP280;54626;45.436;10.942;2023-03-07T08:06:53;99530.31;;;11.46
67829;BMP280;54626;45.436;10.942;2023-03-07T08:09:20;99521.34;;;11.63
67829;BMP280;54626;45.436;10.942;2023-03-07T08:11:47;99517.41;;;11.49
67829;BMP280;54626;45.436;10.942;2023-03-07T08:14:13;99518.00;;;11.23
67829;BMP280;54626;45.436;10.942;2023-03-07T08:16:40;99521.94;;;11.37
67829;BMP280;54626;45.436;10.942;2023-03-07T08:19:06;99517.72;;;11.53
67829;BMP280;54626;45.436;10.942;2023-03-07T08:21:33;99521.28;;;11.46
67829;BMP280;54626;45.436;10.942;2023-03-07T08:23:59;99525.94;;;11.85
67829;BMP280;54626;45.436;10.942;2023-03-07T08:26:26;99526.25;;;11.89
67829;BMP280;54626;45.436;10.942;2023-03-07T08:28:52;99535.81;;;11.54
67829;BMP280;54626;45.436;10.942;2023-03-07T08:31:21;99533.56;;;11.60
67829;BMP280;54626;45.436;10.942;2023-03-07T08:33:51;99546.69;;;11.76
67829;BMP280;54626;45.436;10.942;2023-03-07T08:36:18;99538.22;;;11.91
67829;BMP280;54626;45.436;10.942;2023-03-07T08:38:49;99541.63;;;11.65
67829;BMP280;54626;45.436;10.942;2023-03-07T08:41:19;99543.63;;;11.48
67829;BMP280;54626;45.436;10.942;2023-03-07T08:43:46;99551.97;;;11.65
67829;BMP280;54626;45.436;10.942;2023-03-07T08:46:12;99547.44;;;11.77
67829;BMP280;54626;45.436;10.942;2023-03-07T08:48:38;99544.66;;;11.77
67829;BMP280;54626;45.436;10.942;2023-03-07T08:51:11;99543.66;;;11.65
67829;BMP280;54626;45.436;10.942;2023-03-07T08:53:38;99544.03;;;12.03
67829;BMP280;54626;45.436;10.942;2023-03-07T08:56:06;99545.78;;;12.58
67829;BMP280;54626;45.436;10.942;2023-03-07T08:58:33;99544.53;;;12.95
67829;BMP280;54626;45.436;10.942;2023-03-07T09:00:59;99544.38;;;12.93
67829;BMP280;54626;45.436;10.942;2023-03-07T09:03:26;99536.06;;;12.93
67829;BMP280;54626;45.436;10.942;2023-03-07T09:05:52;99542.22;;;13.37
67829;BMP280;54626;45.436;10.942;2023-03-07T09:08:19;99536.81;;;13.29
67829;BMP280;54626;45.436;10.942;2023-03-07T09:10:45;99532.53;;;13.19
67829;BMP280;54626;45.436;10.942;2023-03-07T09:13:12;99540.06;;;13.09
67829;BMP280;54626;45.436;10.942;2023-03-07T09:15:39;99534.91;;;13.32
67829;BMP280;54626;45.436;10.942;2023-03-07T09:18:07;99536.09;;;13.48
67829;BMP280;54626;45.436;10.942;2023-03-07T09:20:33;99533.97;;;13.65
67829;BMP280;54626;45.436;10.942;2023-03-07T09:23:00;99534.56;;;13.63
67829;BMP280;54626;45.436;10.942;2023-03-07T09:25:26;99531.28;;;13.58
67829;BMP280;54626;45.436;10.942;2023-03-07T09:27:53;99540.41;;;13.67
67829;BMP280;54626;45.436;10.942;2023-03-07T09:30:20;99543.81;;;13.85
67829;BMP280;54626;45.436;10.942;2023-03-07T09:32:48;99544.34;;;13.83
67829;BMP280;54626;45.436;10.942;2023-03-07T09:35:15;99539.41;;;13.82
67829;BMP280;54626;45.436;10.942;2023-03-07T09:37:41;99541.28;;;13.70
67829;BMP280;54626;45.436;10.942;2023-03-07T09:40:15;99538.09;;;13.83
67829;BMP280;54626;45.436;10.942;2023-03-07T09:51:17;99528.88;;;14.28
67829;BMP280;54626;45.436;10.942;2023-03-07T09:53:55;99527.53;;;14.38
67829;BMP280;54626;45.436;10.942;2023-03-07T09:56:48;99525.53;;;14.78
67829;BMP280;54626;45.436;10.942;2023-03-07T09:59:34;99522.06;;;14.68
67829;BMP280;54626;45.436;10.942;2023-03-07T10:05:08;99523.69;;;14.62
67829;BMP280;54626;45.436;10.942;2023-03-07T10:07:36;99516.13;;;15.13
67829;BMP280;54626;45.436;10.942;2023-03-07T10:10:13;99522.59;;;15.16
67829;BMP280;54626;45.436;10.942;2023-03-07T10:13:10;99510.41;;;15.21
67829;BMP280;54626;45.436;10.942;2023-03-07T10:20:58;99507.88;;;15.25
67829;BMP280;54626;45.436;10.942;2023-03-07T10:28:47;99498.28;;;14.77
67829;BMP280;54626;45.436;10.942;2023-03-07T10:31:29;99494.13;;;14.97
67829;BMP280;54626;45.436;10.942;2023-03-07T10:33:57;99495.97;;;15.34
67829;BMP280;54626;45.436;10.942;2023-03-07T10:36:34;99497.47;;;15.25
67829;BMP280;54626;45.436;10.942;2023-03-07T10:39:04;99497.44;;;15.35
67829;BMP280;54626;45.436;10.942;2023-03-07T10:41:31;99495.06;;;15.10
67829;BMP280;54626;45.436;10.942;2023-03-07T10:43:58;99490.16;;;15.20
67829;BMP280;54626;45.436;10.942;2023-03-07T10:46:27;99484.59;;;15.20
67829;BMP280;54626;45.436;10.942;2023-03-07T10:54:45;99488.38;;;16.20
67829;BMP280;54626;45.436;10.942;2023-03-07T10:57:26;99493.13;;;15.96
67829;BMP280;54626;45.436;10.942;2023-03-07T10:59:53;99480.03;;;15.87
67829;BMP280;54626;45.436;10.942;2023-03-07T11:04:48;99481.34;;;16.19
67829;BMP280;54626;45.436;10.942;2023-03-07T11:07:25;99487.19;;;16.23
67829;BMP280;54626;45.436;10.942;2023-03-07T11:09:55;99480.44;;;16.05
67829;BMP280;54626;45.436;10.942;2023-03-07T11:12:24;99484.91;;;15.98
67829;BMP280;54626;45.436;10.942;2023-03-07T11:14:56;99474.81;;;16.37
67829;BMP280;54626;45.436;10.942;2023-03-07T11:17:42;99462.19;;;16.36
67829;BMP280;54626;45.436;10.942;2023-03-07T11:22:47;99437.06;;;16.36
67829;BMP280;54626;45.436;10.942;2023-03-07T11:25:23;99440.25;;;16.88
67829;BMP280;54626;45.436;10.942;2023-03-07T11:27:54;99438.03;;;17.09
67829;BMP280;54626;45.436;10.942;2023-03-07T11:35:54;99441.84;;;16.68
67829;BMP280;54626;45.436;10.942;2023-03-07T11:38:32;99432.13;;;16.69
67829;BMP280;54626;45.436;10.942;2023-03-07T11:41:19;99423.50;;;16.76
67829;BMP280;54626;45.436;10.942;2023-03-07T11:54:20;99411.00;;;16.54
67829;BMP280;54626;45.436;10.942;2023-03-07T11:56:54;99403.38;;;16.66
67829;BMP280;54626;45.436;10.942;2023-03-07T12:05:02;99396.81;;;16.62
67829;BMP280;54626;45.436;10.942;2023-03-07T12:07:39;99392.19;;;16.78
67829;BMP280;54626;45.436;10.942;2023-03-07T12:13:04;99381.97;;;16.71
67829;BMP280;54626;45.436;10.942;2023-03-07T12:24:24;99374.19;;;17.53
67829;BMP280;54626;45.436;10.942;2023-03-07T12:27:08;99371.44;;;17.17
67829;BMP280;54626;45.436;10.942;2023-03-07T12:29:45;99370.94;;;17.45
67829;BMP280;54626;45.436;10.942;2023-03-07T12:32:17;99366.91;;;16.87
67829;BMP280;54626;45.436;10.942;2023-03-07T12:37:43;99372.97;;;16.95
67829;BMP280;54626;45.436;10.942;2023-03-07T12:40:25;99377.25;;;16.62
67829;BMP280;54626;45.436;10.942;2023-03-07T12:43:15;99365.72;;;16.56
67829;BMP280;54626;45.436;10.942;2023-03-07T12:45:49;99368.53;;;16.56
67829;BMP280;54626;45.436;10.942;2023-03-07T12:48:26;99361.84;;;16.49
67829;BMP280;54626;45.436;10.942;2023-03-07T12:51:07;99370.34;;;16.40
67829;BMP280;54626;45.436;10.942;2023-03-07T12:53:41;99368.66;;;16.35
67829;BMP280;54626;45.436;10.942;2023-03-07T12:59:15;99358.81;;;16.57
67829;BMP280;54626;45.436;10.942;2023-03-07T13:04:17;99362.00;;;16.51
67829;BMP280;54626;45.436;10.942;2023-03-07T13:06:46;99365.13;;;16.46
67829;BMP280;54626;45.436;10.942;2023-03-07T13:09:24;99364.41;;;16.57
67829;BMP280;54626;45.436;10.942;2023-03-07T13:14:43;99353.25;;;16.45
67829;BMP280;54626;45.436;10.942;2023-03-07T13:17:11;99348.16;;;16.53
67829;BMP280;54626;45.436;10.942;2023-03-07T13:24:41;99350.69;;;16.49
67829;BMP280;54626;45.436;10.942;2023-03-07T13:27:42;99353.88;;;16.44
67829;BMP280;54626;45.436;10.942;2023-03-07T13:45:56;99354.69;;;16.35
67829;BMP280;54626;45.436;10.942;2023-03-07T13:53:42;99337.84;;;16.44
67829;BMP280;54626;45.436;10.942;2023-03-07T13:58:58;99328.56;;;16.65
67829;BMP280;54626;45.436;10.942;2023-03-07T14:04:31;99316.94;;;16.68
67829;BMP280;54626;45.436;10.942;2023-03-07T14:09:41;99314.91;;;16.57
67829;BMP280;54626;45.436;10.942;2023-03-07T14:20:25;99318.44;;;16.46
67829;BMP280;54626;45.436;10.942;2023-03-07T14:23:00;99303.28;;;16.27
67829;BMP280;54626;45.436;10.942;2023-03-07T14:25:32;99306.44;;;16.44
67829;BMP280;54626;45.436;10.942;2023-03-07T14:28:23;99292.56;;;16.57
67829;BMP280;54626;45.436;10.942;2023-03-07T14:30:57;99294.38;;;16.64
67829;BMP280;54626;45.436;10.942;2023-03-07T14:33:29;99298.66;;;16.54
67829;BMP280;54626;45.436;10.942;2023-03-07T14:35:56;99286.28;;;16.45
67829;BMP280;54626;45.436;10.942;2023-03-07T14:38:24;99294.19;;;16.37
67829;BMP280;54626;45.436;10.942;2023-03-07T14:41:32;99293.22;;;16.22
67829;BMP280;54626;45.436;10.942;2023-03-07T14:44:20;99284.34;;;16.25
67829;BMP280;54626;45.436;10.942;2023-03-07T14:52:04;99276.00;;;15.91
67829;BMP280;54626;45.436;10.942;2023-03-07T14:54:32;99279.53;;;15.91
67829;BMP280;54626;45.436;10.942;2023-03-07T14:56:59;99286.06;;;15.96
67829;BMP280;54626;45.436;10.942;2023-03-07T14:59:28;99282.81;;;16.11
67829;BMP280;54626;45.436;10.942;2023-03-07T15:01:56;99272.34;;;16.11
67829;BMP280;54626;45.436;10.942;2023-03-07T15:04:28;99273.97;;;16.03
67829;BMP280;54626;45.436;10.942;2023-03-07T15:06:57;99265.59;;;16.03
67829;BMP280;54626;45.436;10.942;2023-03-07T15:09:25;99265.22;;;15.97
67829;BMP280;54626;45.436;10.942;2023-03-07T15:12:02;99262.06;;;16.02
67829;BMP280;54626;45.436;10.942;2023-03-07T15:14:45;99267.50;;;16.00
67829;BMP280;54626;45.436;10.942;2023-03-07T15:17:18;99268.97;;;15.90
67829;BMP280;54626;45.436;10.942;2023-03-07T15:19:48;99267.63;;;15.79
67829;BMP280;54626;45.436;10.942;2023-03-07T15:22:25;99257.72;;;15.88
67829;BMP280;54626;45.436;10.942;2023-03-07T15:24:52;99250.53;;;15.73
67829;BMP280;54626;45.436;10.942;2023-03-07T15:27:25;99255.16;;;15.92
67829;BMP280;54626;45.436;10.942;2023-03-07T15:29:52;99245.22;;;15.89
67829;BMP280;54626;45.436;10.942;2023-03-07T15:32:34;99251.75;;;15.93
67829;BMP280;54626;45.436;10.942;2023-03-07T15:37:31;99249.94;;;15.75
67829;BMP280;54626;45.436;10.942;2023-03-07T15:40:31;99246.41;;;15.63
67829;BMP280;54626;45.436;10.942;2023-03-07T15:48:00;99257.88;;;15.35
67829;BMP280;54626;45.436;10.942;2023-03-07T15:50:27;99256.66;;;15.38
67829;BMP280;54626;45.436;10.942;2023-03-07T15:53:01;99262.13;;;15.47
67829;BMP280;54626;45.436;10.942;2023-03-07T15:55:30;99265.41;;;15.44
67829;BMP280;54626;45.436;10.942;2023-03-07T15:58:03;99256.06;;;15.39
67829;BMP280;54626;45.436;10.942;2023-03-07T16:00:34;99253.25;;;15.28
67829;BMP280;54626;45.436;10.942;2023-03-07T16:03:26;99254.19;;;15.21
67829;BMP280;54626;45.436;10.942;2023-03-07T16:05:55;99256.66;;;15.05
67829;BMP280;54626;45.436;10.942;2023-03-07T16:08:23;99264.75;;;15.01
67829;BMP280;54626;45.436;10.942;2023-03-07T16:10:55;99267.75;;;14.94
67829;BMP280;54626;45.436;10.942;2023-03-07T16:13:26;99274.56;;;14.82
67829;BMP280;54626;45.436;10.942;2023-03-07T16:16:12;99279.44;;;14.81
67829;BMP280;54626;45.436;10.942;2023-03-07T16:18:41;99284.25;;;14.81
67829;BMP280;54626;45.436;10.942;2023-03-07T16:21:11;99279.03;;;14.75
67829;BMP280;54626;45.436;10.942;2023-03-07T16:23:38;99270.44;;;14.71
67829;BMP280;54626;45.436;10.942;2023-03-07T16:26:05;99253.78;;;14.62
67829;BMP280;54626;45.436;10.942;2023-03-07T16:28:33;99267.81;;;14.64
67829;BMP280;54626;45.436;10.942;2023-03-07T16:31:00;99283.19;;;14.65